Time;durP1;ratioP1;P1;durP2;ratioP2;P2;SDS_P1;SDS_P2;PMS_P1;PMS_P2;Temp;Humidity;BMP_temperature;BMP_pressure;BME280_temperature;BME280_humidity;BME280_pressure;Samples;Min_cycle;Max_cycle;Signal;HPM_P1;HPM_P2
2022/03/05 00:01:24;;;;;;;3.25;3.03;;;;;;;5.32;45.57;101429.94;5158170;28;20038;-81
2022/03/05 00:03:55;;;;;;;2.63;1.58;;;;;;;5.10;47.27;101422.84;5177724;28;20681;-80
2022/03/05 00:06:28;;;;;;;0.98;0.98;;;;;;;5.24;46.51;101417.72;5172337;28;20116;-80
2022/03/05 00:09:01;;;;;;;2.25;2.05;;;;;;;5.51;46.09;101424.81;5153002;28;20038;-80
2022/03/05 00:11:31;;;;;;;1.40;1.30;;;;;;;5.55;45.95;101423.09;5168355;28;20545;-81
2022/03/05 00:14:05;;;;;;;1.58;1.52;;;;;;;5.36;46.23;101425.63;5175014;28;20038;-80
2022/03/05 00:16:38;;;;;;;1.08;1.08;;;;;;;5.35;46.27;101418.69;5170566;28;20041;-80
2022/03/05 00:19:09;;;;;;;1.95;1.85;;;;;;;5.49;45.61;101423.97;5169661;28;20121;-81
2022/03/05 00:21:39;;;;;;;1.58;1.48;;;;;;;5.39;46.76;101416.97;5187910;28;20523;-80
2022/03/05 00:24:10;;;;;;;0.50;0.50;;;;;;;5.19;46.91;101410.78;5182968;28;20133;-80
2022/03/05 00:26:40;;;;;;;3.08;1.52;;;;;;;5.03;47.92;101425.41;5172470;28;20298;-80
2022/03/05 00:29:14;;;;;;;2.00;1.85;;;;;;;4.95;47.48;101424.47;5173345;28;20743;-81
2022/03/05 00:31:44;;;;;;;1.38;1.30;;;;;;;5.02;48.01;101425.41;5168840;28;20038;-80
2022/03/05 00:34:15;;;;;;;0.60;0.60;;;;;;;5.00;47.96;101421.91;5175153;28;20053;-80
2022/03/05 00:36:45;;;;;;;3.05;2.70;;;;;;;4.95;48.27;101424.47;5172466;28;20037;-80
2022/03/05 00:39:16;;;;;;;0.95;0.90;;;;;;;5.09;48.15;101423.69;5159029;28;20092;-80
2022/03/05 00:41:50;;;;;;;0.65;0.65;;;;;;;4.87;48.50;101428.75;5192333;22;20521;-82
2022/03/05 00:44:23;;;;;;;3.13;2.10;;;;;;;5.14;47.38;101430.69;5184944;28;20045;-79
2022/03/05 00:46:54;;;;;;;1.52;1.42;;;;;;;5.12;47.68;101428.94;5198611;28;20033;-79
2022/03/05 00:49:25;;;;;;;1.23;1.23;;;;;;;5.09;47.45;101434.09;5168065;28;20051;-78
2022/03/05 00:52:01;;;;;;;2.50;1.88;;;;;;;4.79;48.86;101430.41;5195534;28;20127;-79
2022/03/05 00:54:32;;;;;;;1.50;1.40;;;;;;;4.94;48.97;101424.47;5194064;28;20050;-79
2022/03/05 00:57:03;;;;;;;1.60;1.50;;;;;;;5.03;48.12;101429.75;5161528;28;20095;-80
2022/03/05 00:59:33;;;;;;;2.88;2.72;;;;;;;4.83;48.43;101427.84;5160045;28;20047;-79
2022/03/05 01:02:13;;;;;;;1.52;1.48;;;;;;;4.69;49.76;101429.47;5159765;28;20029;-78
2022/03/05 01:04:56;;;;;;;1.63;1.52;;;;;;;4.57;50.06;101430.25;5160451;28;21029;-79
2022/03/05 01:07:27;;;;;;;0.85;0.85;;;;;;;4.49;50.15;101437.09;5193626;28;20397;-80
2022/03/05 01:09:58;;;;;;;5.88;1.77;;;;;;;4.32;50.81;101432.59;5163467;28;20048;-79
2022/03/05 01:12:28;;;;;;;1.10;1.10;;;;;;;3.95;52.01;101437.38;5197104;28;20037;-79
2022/03/05 01:14:59;;;;;;;2.13;2.03;;;;;;;4.34;50.51;101427.41;5191972;28;20518;-80
2022/03/05 01:17:29;;;;;;;0.80;0.80;;;;;;;4.45;50.34;101424.91;5197439;28;20037;-81
2022/03/05 01:20:00;;;;;;;1.27;1.25;;;;;;;4.47;50.15;101423.22;5190025;28;20080;-80
2022/03/05 01:22:31;;;;;;;3.63;2.90;;;;;;;4.53;49.48;101412.88;5194974;28;20036;-81
2022/03/05 01:25:02;;;;;;;2.50;1.60;;;;;;;4.61;49.44;101411.19;5188460;28;20061;-80
2022/03/05 01:27:33;;;;;;;0.50;0.50;;;;;;;4.33;50.32;101415.28;5172854;28;20030;-79
2022/03/05 01:30:04;;;;;;;3.05;2.75;;;;;;;4.39;49.68;101416.22;5194990;28;20045;-80
2022/03/05 01:32:35;;;;;;;0.95;0.95;;;;;;;4.24;51.03;101411.72;5191459;28;20022;-80
2022/03/05 01:35:06;;;;;;;1.15;1.15;;;;;;;4.56;49.96;101400.75;5199882;28;20056;-80
2022/03/05 01:37:37;;;;;;;2.40;2.17;;;;;;;4.53;49.83;101412.88;5205685;28;20030;-82
2022/03/05 01:40:08;;;;;;;0.70;0.70;;;;;;;4.68;49.38;101407.78;5180626;28;20064;-80
2022/03/05 01:42:39;;;;;;;1.98;1.75;;;;;;;4.70;48.90;101407.84;5188928;28;20053;-82
2022/03/05 01:45:11;;;;;;;2.55;2.00;;;;;;;4.20;51.41;101409.09;5182195;28;20265;-80
2022/03/05 01:47:41;;;;;;;1.13;1.10;;;;;;;4.40;49.91;101412.75;5185491;28;20390;-81
2022/03/05 01:50:12;;;;;;;3.35;2.45;;;;;;;4.33;50.51;101416.16;5182894;28;20195;-82
2022/03/05 01:52:43;;;;;;;1.33;1.30;;;;;;;4.48;50.13;101423.22;5202152;28;20033;-84
2022/03/05 01:55:13;;;;;;;1.30;1.30;;;;;;;4.32;50.61;101409.22;5182552;28;20064;-82
2022/03/05 01:57:44;;;;;;;0.88;0.88;;;;;;;4.51;49.64;101419.75;5204877;28;20739;-80
2022/03/05 02:00:15;;;;;;;2.42;2.22;;;;;;;4.57;49.73;101405.09;5192630;28;20040;-81
2022/03/05 02:02:46;;;;;;;2.80;2.05;;;;;;;4.58;49.06;101400.81;5211721;28;20393;-80
2022/03/05 02:05:16;;;;;;;1.63;1.52;;;;;;;4.53;49.88;101413.75;5202125;28;20043;-81
2022/03/05 02:07:47;;;;;;;2.38;2.17;;;;;;;4.58;49.59;101411.19;5181147;28;20038;-83
2022/03/05 02:10:21;;;;;;;1.90;1.80;;;;;;;4.62;49.00;101412.94;5180921;28;20038;-81
2022/03/05 02:12:51;;;;;;;6.05;3.13;;;;;;;4.73;49.16;101403.53;5174909;28;20026;-81
2022/03/05 02:15:22;;;;;;;1.58;1.48;;;;;;;4.57;49.37;101399.06;5173801;28;20036;-80
2022/03/05 02:17:53;;;;;;;7.93;2.83;;;;;;;4.56;50.08;101407.72;5179490;28;20033;-81
2022/03/05 02:20:28;;;;;;;0.90;0.90;;;;;;;4.52;49.37;101405.91;5183554;28;20056;-82
2022/03/05 02:22:58;;;;;;;1.98;1.85;;;;;;;4.52;49.49;101403.31;5177680;28;20026;-81
2022/03/05 02:25:28;;;;;;;2.08;1.98;;;;;;;4.41;49.55;101403.22;5196349;28;20037;-81
2022/03/05 02:27:59;;;;;;;5.10;2.20;;;;;;;4.33;50.76;101402.28;5182730;28;20029;-80
2022/03/05 02:30:30;;;;;;;2.45;2.25;;;;;;;4.41;49.50;101406.72;5166210;28;20085;-81
2022/03/05 02:33:19;;;;;;;3.65;3.10;;;;;;;4.49;49.35;101408.50;5180320;28;20026;-83
2022/03/05 02:35:50;;;;;;;3.00;2.80;;;;;;;4.43;50.03;101396.31;5179689;28;20060;-81
2022/03/05 02:38:22;;;;;;;2.92;2.45;;;;;;;4.46;49.70;101403.28;5189337;28;20116;-82
2022/03/05 02:40:53;;;;;;;0.90;0.90;;;;;;;4.46;49.86;101398.97;5184048;28;20052;-81
2022/03/05 02:43:25;;;;;;;2.05;1.88;;;;;;;4.46;50.07;101398.06;5178499;28;20045;-82
2022/03/05 02:45:55;;;;;;;2.38;2.28;;;;;;;4.44;50.12;101398.06;5193357;28;20026;-81
2022/03/05 02:48:26;;;;;;;5.25;2.15;;;;;;;4.38;50.61;101391.09;5161707;28;20105;-80
2022/03/05 02:50:57;;;;;;;1.98;1.80;;;;;;;4.36;50.27;101398.00;5194537;28;20037;-81
2022/03/05 02:53:29;;;;;;;3.83;3.42;;;;;;;4.36;50.09;101398.00;5201812;28;20029;-80
2022/03/05 02:56:03;;;;;;;1.85;1.58;;;;;;;4.34;50.36;101397.09;5180865;28;20033;-79
2022/03/05 02:58:33;;;;;;;3.75;3.25;;;;;;;4.31;49.48;101389.28;5198563;28;20056;-80
2022/03/05 03:01:06;;;;;;;0.82;0.82;;;;;;;4.23;51.41;101393.53;5164633;28;20034;-81
2022/03/05 03:03:37;;;;;;;3.78;3.53;;;;;;;4.32;50.57;101392.75;5161260;28;20034;-80
2022/03/05 03:06:08;;;;;;;1.30;1.30;;;;;;;4.22;50.64;101394.41;5161863;28;20042;-81
2022/03/05 03:08:38;;;;;;;1.75;0.98;;;;;;;4.22;50.82;101392.66;5197240;28;20175;-81
2022/03/05 03:11:10;;;;;;;3.22;3.03;;;;;;;4.22;50.65;101392.66;5176786;28;20038;-81
2022/03/05 03:13:40;;;;;;;11.02;2.10;;;;;;;4.03;51.85;101389.00;5180879;28;20635;-80
2022/03/05 03:16:11;;;;;;;1.58;1.50;;;;;;;4.12;51.24;101389.94;5184472;28;20045;-80
2022/03/05 03:18:41;;;;;;;1.90;1.80;;;;;;;4.15;50.66;101382.19;5178736;28;20495;-80
2022/03/05 03:21:12;;;;;;;0.95;0.70;;;;;;;4.16;51.13;101382.22;5185654;28;20037;-81
2022/03/05 03:23:45;;;;;;;1.15;1.13;;;;;;;4.08;51.81;101383.84;5159858;28;21006;-82
2022/03/05 03:26:15;;;;;;;8.35;3.08;;;;;;;4.18;50.88;101384.81;5179812;28;20465;-80
2022/03/05 03:28:46;;;;;;;0.90;0.90;;;;;;;4.14;51.46;101386.50;5193421;28;20041;-81
2022/03/05 03:31:16;;;;;;;1.77;1.67;;;;;;;4.09;51.07;101373.47;5177850;28;20046;-81
2022/03/05 03:33:47;;;;;;;3.72;3.42;;;;;;;4.20;50.60;101384.00;5195342;28;20140;-82
2022/03/05 03:36:18;;;;;;;1.05;1.05;;;;;;;4.06;50.78;101386.44;5162058;28;20129;-82
2022/03/05 03:38:49;;;;;;;3.53;3.25;;;;;;;4.02;51.34;101383.78;5174774;28;20232;-81
2022/03/05 03:41:19;;;;;;;0.88;0.88;;;;;;;4.10;51.20;101383.00;5164845;28;20092;-80
2022/03/05 03:43:49;;;;;;;1.10;1.08;;;;;;;4.02;51.56;101383.78;5175990;28;20033;-81
2022/03/05 03:46:20;;;;;;;4.53;3.08;;;;;;;4.06;51.58;101391.63;5197397;28;20288;-81
2022/03/05 03:48:51;;;;;;;1.15;1.15;;;;;;;3.86;51.50;101388.81;5192870;28;20103;-81
2022/03/05 03:51:21;;;;;;;3.80;2.22;;;;;;;3.99;51.22;101394.13;5189211;28;20045;-81
2022/03/05 03:53:52;;;;;;;2.05;1.95;;;;;;;3.99;50.86;101397.63;5185407;28;20060;-80
2022/03/05 03:56:22;;;;;;;1.25;1.15;;;;;;;3.82;51.99;101396.56;5181792;28;20506;-83
2022/03/05 03:58:53;;;;;;;5.10;3.10;;;;;;;3.80;52.41;101398.25;5182293;28;20094;-80
2022/03/05 04:01:23;;;;;;;4.28;3.85;;;;;;;3.97;51.72;101398.47;5177401;28;20029;-82
2022/03/05 04:03:54;;;;;;;1.45;1.45;;;;;;;3.94;51.98;101396.69;5178255;28;20122;-80
2022/03/05 04:06:24;;;;;;;2.25;2.15;;;;;;;3.99;51.51;101397.63;5199415;28;20034;-80
2022/03/05 04:08:55;;;;;;;2.60;2.50;;;;;;;3.88;52.19;101392.31;5199781;28;20029;-80
2022/03/05 04:11:25;;;;;;;2.28;2.00;;;;;;;3.92;51.04;101395.81;5173029;28;20041;-81
2022/03/05 04:13:56;;;;;;;1.55;1.45;;;;;;;3.86;52.17;101400.91;5159566;28;20037;-81
2022/03/05 04:16:26;;;;;;;1.45;1.40;;;;;;;3.81;51.93;101400.00;5186003;28;20033;-81
2022/03/05 04:18:57;;;;;;;4.28;3.30;;;;;;;3.84;50.95;101405.25;5185540;28;20040;-81
2022/03/05 04:21:27;;;;;;;3.65;2.72;;;;;;;3.77;52.21;101410.34;5172205;28;20037;-80
2022/03/05 04:24:03;;;;;;;1.13;1.13;;;;;;;3.75;51.82;101406.88;5180817;28;20037;-80
2022/03/05 04:26:33;;;;;;;10.18;2.97;;;;;;;3.71;52.19;101412.88;5180391;28;20048;-80
2022/03/05 04:29:04;;;;;;;3.00;2.80;;;;;;;3.71;52.88;101415.47;5198251;28;20033;-80
2022/03/05 04:31:34;;;;;;;1.83;1.73;;;;;;;3.75;52.38;101412.06;5182080;28;20041;-81
2022/03/05 04:34:05;;;;;;;12.45;3.53;;;;;;;3.77;51.59;101420.72;5173223;28;20046;-80
2022/03/05 04:36:38;;;;;;;1.50;1.40;;;;;;;3.75;51.60;101417.25;5179426;28;20053;-80
2022/03/05 04:39:09;;;;;;;;;;;;;;;3.72;52.08;101424.13;5163657;28;20034;-82
2022/03/05 04:41:40;;;;;;;1.30;1.30;;;;;;;3.66;51.99;101422.34;5177542;28;20355;-80
2022/03/05 04:44:11;;;;;;;1.48;1.40;;;;;;;3.65;52.16;101425.78;5164808;28;20045;-82
2022/03/05 04:46:41;;;;;;;0.88;0.88;;;;;;;3.66;52.44;101419.75;5160928;28;20040;-81
2022/03/05 04:49:12;;;;;;;0.60;0.60;;;;;;;3.64;52.53;101423.19;5162883;28;20045;-80
2022/03/05 04:51:43;;;;;;;1.90;1.80;;;;;;;3.64;52.37;101426.63;5191439;28;20374;-79
2022/03/05 04:54:13;;;;;;;1.25;0.98;;;;;;;3.49;52.23;101424.69;5193457;28;20034;-81
2022/03/05 04:56:44;;;;;;;1.08;1.05;;;;;;;3.61;52.28;101427.47;5179393;28;20037;-80
2022/03/05 04:59:15;;;;;;;1.23;1.23;;;;;;;3.53;52.19;101433.38;5189638;28;20124;-80
2022/03/05 05:01:46;;;;;;;4.38;4.05;;;;;;;3.59;51.88;101426.56;5196662;28;20024;-83
2022/03/05 05:04:19;;;;;;;1.17;1.17;;;;;;;3.58;51.76;101429.16;5158054;28;20033;-80
2022/03/05 05:06:49;;;;;;;2.67;1.35;;;;;;;3.60;51.71;101430.00;5176289;28;20026;-78
2022/03/05 05:09:20;;;;;;;3.78;3.08;;;;;;;3.59;51.43;101433.50;5180753;28;20048;-79
2022/03/05 05:11:50;;;;;;;3.78;3.45;;;;;;;3.55;52.30;101435.19;5178112;28;20045;-80
2022/03/05 05:14:21;;;;;;;1.15;1.15;;;;;;;3.36;53.19;101434.03;5164370;28;20041;-79
2022/03/05 05:16:51;;;;;;;1.58;1.48;;;;;;;3.26;52.70;101442.56;5195131;28;20632;-79
2022/03/05 05:19:24;;;;;;;1.35;1.35;;;;;;;3.46;52.32;101442.84;5175498;28;20041;-80
2022/03/05 05:21:59;;;;;;;5.05;2.10;;;;;;;3.41;52.27;101447.94;5195096;28;20103;-80
2022/03/05 05:24:32;;;;;;;2.17;2.08;;;;;;;3.43;52.91;101450.56;5173594;28;20456;-79
2022/03/05 05:27:03;;;;;;;0.68;0.68;;;;;;;3.51;52.77;101448.09;5160149;28;20119;-81
2022/03/05 05:29:34;;;;;;;1.42;1.33;;;;;;;3.52;52.13;101444.63;5187196;28;20068;-78
2022/03/05 05:32:10;;;;;;;0.32;0.32;;;;;;;3.49;51.99;101440.25;5177660;28;20049;-81
2022/03/05 05:34:41;;;;;;;2.33;2.22;;;;;;;3.41;52.84;101441.88;5183491;28;20045;-82
2022/03/05 05:37:12;;;;;;;3.25;2.80;;;;;;;3.36;52.71;101441.81;5195506;28;20037;-81
2022/03/05 05:39:43;;;;;;;1.83;1.80;;;;;;;3.29;53.28;101447.75;5181538;28;20034;-81
2022/03/05 05:42:13;;;;;;;1.17;1.17;;;;;;;3.37;52.61;101440.09;5211017;28;20103;-81
2022/03/05 05:44:44;;;;;;;1.17;1.17;;;;;;;3.37;52.37;101443.56;5169410;28;20033;-78
2022/03/05 05:47:14;;;;;;;0.55;0.55;;;;;;;3.09;53.94;101450.06;5185893;28;20081;-79
2022/03/05 05:49:48;;;;;;;3.33;2.38;;;;;;;3.19;53.36;101451.06;5184801;28;20041;-80
2022/03/05 05:52:18;;;;;;;1.23;1.17;;;;;;;3.28;52.56;101458.97;5186153;28;20030;-79
2022/03/05 05:54:49;;;;;;;3.90;3.33;;;;;;;3.30;52.78;101459.88;5176882;28;20260;-80
2022/03/05 05:57:19;;;;;;;1.70;1.60;;;;;;;3.02;53.97;101461.19;5186187;28;20542;-81
2022/03/05 05:59:50;;;;;;;1.60;1.52;;;;;;;3.18;52.94;101464.91;5186933;28;20096;-80
2022/03/05 06:02:21;;;;;;;0.98;0.98;;;;;;;3.28;52.68;101456.38;5189551;28;20126;-80
2022/03/05 06:04:52;;;;;;;1.52;1.48;;;;;;;3.28;53.32;101458.97;5182212;28;20044;-81
2022/03/05 06:07:22;;;;;;;7.43;3.67;;;;;;;3.30;52.75;101465.06;5178108;28;20037;-80
2022/03/05 06:09:53;;;;;;;3.70;2.00;;;;;;;3.26;53.69;101456.38;5200936;28;20041;-80
2022/03/05 06:12:23;;;;;;;1.13;1.13;;;;;;;3.25;52.89;101456.38;5193247;28;20043;-81
2022/03/05 06:14:54;;;;;;;2.42;2.33;;;;;;;3.17;53.43;101457.97;5179123;28;20091;-82
2022/03/05 06:17:25;;;;;;;4.57;2.33;;;;;;;3.22;53.21;101456.31;5194538;28;20047;-80
2022/03/05 06:19:55;;;;;;;0.95;0.95;;;;;;;2.96;55.10;101459.34;5174049;28;20046;-80
2022/03/05 06:22:26;;;;;;;1.80;1.08;;;;;;;2.90;54.45;101467.91;5182173;28;20036;-81
2022/03/05 06:24:56;;;;;;;2.30;2.15;;;;;;;2.91;53.88;101466.19;5192812;28;20061;-81
2022/03/05 06:27:27;;;;;;;1.98;1.88;;;;;;;3.06;54.89;101463.00;5157996;28;20128;-81
2022/03/05 06:29:58;;;;;;;0.65;0.65;;;;;;;3.16;53.80;101464.84;5194818;28;20149;-83
2022/03/05 06:32:28;;;;;;;3.45;2.03;;;;;;;2.89;54.89;101466.19;5156641;28;20041;-83
2022/03/05 06:34:59;;;;;;;3.85;3.03;;;;;;;3.12;54.11;101461.34;5190778;28;20568;-81
2022/03/05 06:37:29;;;;;;;1.90;1.77;;;;;;;3.02;53.88;101463.78;5181732;28;20037;-80
2022/03/05 06:40:01;;;;;;;2.65;2.45;;;;;;;3.13;53.98;101463.09;5176734;28;20567;-84
2022/03/05 06:42:31;;;;;;;2.15;2.05;;;;;;;3.13;54.18;101459.66;5197202;28;20033;-80
2022/03/05 06:45:08;;;;;;;1.75;1.70;;;;;;;3.24;54.04;101467.59;5173657;28;20046;-80
2022/03/05 06:47:39;;;;;;;0.93;0.93;;;;;;;3.06;54.00;101466.44;5174959;28;20528;-81
2022/03/05 06:50:16;;;;;;;2.58;2.38;;;;;;;3.14;53.61;101466.56;5188110;28;20069;-81
2022/03/05 06:52:46;;;;;;;1.42;1.33;;;;;;;3.15;53.77;101466.59;5159450;28;20030;-80
2022/03/05 06:55:17;;;;;;;2.17;1.90;;;;;;;3.19;53.56;101466.63;5179879;28;20045;-84
2022/03/05 06:57:47;;;;;;;4.03;1.48;;;;;;;3.24;53.25;101462.41;5194686;28;20029;-80
2022/03/05 07:00:18;;;;;;;2.30;1.73;;;;;;;3.22;53.62;101472.75;5174861;28;20037;-79
2022/03/05 07:02:52;;;;;;;3.53;1.65;;;;;;;3.28;53.90;101471.94;5175635;28;20036;-80
2022/03/05 07:05:22;;;;;;;1.45;1.35;;;;;;;3.19;53.93;101472.69;5160103;28;20049;-82
2022/03/05 07:07:53;;;;;;;8.10;3.92;;;;;;;3.26;53.63;101477.13;5183695;28;20029;-83
2022/03/05 07:10:26;;;;;;;1.83;1.73;;;;;;;3.21;53.52;101477.91;5208661;28;20037;-79
2022/03/05 07:12:57;;;;;;;5.50;2.95;;;;;;;3.19;53.84;101482.19;5173583;28;20060;-83
2022/03/05 07:15:27;;;;;;;0.98;0.85;;;;;;;3.14;54.03;101489.91;5170311;28;20040;-81
2022/03/05 07:17:58;;;;;;;1.23;1.23;;;;;;;3.22;53.80;101477.94;5176866;28;20063;-81
2022/03/05 07:20:28;;;;;;;1.48;1.38;;;;;;;3.22;54.17;101487.44;5195274;28;20065;-80
2022/03/05 07:22:59;;;;;;;2.72;2.40;;;;;;;3.29;53.71;101491.84;5180471;28;20106;-79
2022/03/05 07:25:39;;;;;;;3.42;3.08;;;;;;;3.20;54.77;101483.94;5161497;28;20045;-81
2022/03/05 07:28:11;;;;;;;2.75;1.67;;;;;;;3.05;54.71;101489.75;5183873;28;20030;-83
2022/03/05 07:30:42;;;;;;;3.55;2.13;;;;;;;3.18;54.33;101485.66;5192225;28;20037;-79
2022/03/05 07:33:13;;;;;;;1.35;1.33;;;;;;;3.23;54.40;101484.00;5176145;28;20164;-79
2022/03/05 07:35:44;;;;;;;2.45;2.28;;;;;;;3.14;54.67;101490.78;5193957;28;20076;-81
2022/03/05 07:38:14;;;;;;;1.25;1.25;;;;;;;3.16;55.12;101490.78;5192048;28;20033;-80
2022/03/05 07:40:45;;;;;;;1.23;1.23;;;;;;;3.07;55.67;101493.22;5176593;28;20048;-80
2022/03/05 07:43:17;;;;;;;1.27;1.27;;;;;;;3.25;54.25;101490.94;5164272;28;20025;-80
2022/03/05 07:45:47;;;;;;;2.38;2.00;;;;;;;3.24;55.20;101496.13;5188060;28;20100;-79
2022/03/05 07:48:19;;;;;;;2.63;2.40;;;;;;;3.16;55.30;101498.56;5156923;28;20026;-80
2022/03/05 07:50:51;;;;;;;1.75;1.65;;;;;;;3.12;55.32;101502.84;5197784;28;20038;-82
2022/03/05 07:53:21;;;;;;;1.83;1.50;;;;;;;3.13;54.89;101509.78;5174875;28;20056;-80
2022/03/05 07:55:53;;;;;;;0.40;0.40;;;;;;;3.23;55.20;101499.56;5158938;28;20053;-80
2022/03/05 07:58:23;;;;;;;1.38;1.38;;;;;;;3.29;54.85;101510.00;5181599;28;20584;-79
2022/03/05 08:00:54;;;;;;;2.05;1.95;;;;;;;3.31;54.53;101505.72;5191969;28;20030;-81
2022/03/05 08:03:24;;;;;;;1.15;1.15;;;;;;;3.36;54.93;101505.81;5172245;28;20036;-80
2022/03/05 08:05:56;;;;;;;1.15;1.15;;;;;;;3.23;56.22;101508.19;5174220;28;20402;-82
2022/03/05 08:08:26;;;;;;;0.73;0.73;;;;;;;3.32;54.75;101512.66;5161110;28;20033;-79
2022/03/05 08:11:00;;;;;;;1.55;1.52;;;;;;;3.43;54.91;101508.50;5176260;28;20050;-86
2022/03/05 08:13:31;;;;;;;12.20;2.60;;;;;;;3.28;56.22;101518.63;5179919;28;20501;-79
2022/03/05 08:16:01;;;;;;;2.15;1.95;;;;;;;3.33;56.00;101516.13;5172010;28;20194;-82
2022/03/05 08:18:32;;;;;;;2.22;2.13;;;;;;;3.21;57.41;101521.97;5197048;28;20116;-79
2022/03/05 08:21:02;;;;;;;1.05;1.05;;;;;;;3.36;56.28;101521.38;5172517;28;20068;-83
2022/03/05 08:23:33;;;;;;;1.13;1.13;;;;;;;3.08;58.00;101518.31;5172441;28;20101;-78
2022/03/05 08:26:05;;;;;;;3.35;2.47;;;;;;;3.26;56.33;101520.38;5195754;28;20045;-83
2022/03/05 08:28:40;;;;;;;1.13;1.13;;;;;;;3.13;57.58;101520.16;5190587;28;20029;-85
2022/03/05 08:31:14;;;;;;;1.55;1.45;;;;;;;3.31;56.22;101529.94;5158199;28;20094;-80
2022/03/05 08:33:45;;;;;;;2.92;2.13;;;;;;;3.37;55.92;101523.13;5179269;28;20054;-82
2022/03/05 08:36:15;;;;;;;7.70;3.22;;;;;;;3.37;56.81;101521.38;5177056;28;20087;-79
2022/03/05 08:38:45;;;;;;;2.60;2.42;;;;;;;3.47;55.65;101530.19;5194742;28;20045;-81
2022/03/05 08:41:16;;;;;;;3.88;3.20;;;;;;;3.54;56.95;101523.34;5163052;28;20408;-85
2022/03/05 08:43:47;;;;;;;1.70;1.63;;;;;;;3.49;56.23;101527.63;5193970;28;20036;-80
2022/03/05 08:46:21;;;;;;;2.90;2.67;;;;;;;3.47;56.22;101525.88;5190231;28;20164;-80
2022/03/05 08:48:52;;;;;;;2.85;2.67;;;;;;;3.54;56.72;101521.66;5196738;28;20034;-80
2022/03/05 08:51:22;;;;;;;5.45;2.13;;;;;;;3.65;56.37;101521.81;5176980;28;20051;-82
2022/03/05 08:53:53;;;;;;;3.63;3.35;;;;;;;3.62;56.07;101519.16;5196353;28;20034;-79
2022/03/05 08:56:23;;;;;;;1.42;1.42;;;;;;;3.57;56.67;101521.69;5159790;28;20060;-81
2022/03/05 08:58:54;;;;;;;1.35;1.27;;;;;;;3.62;56.60;101519.16;5191289;28;20509;-80
2022/03/05 09:01:24;;;;;;;4.30;2.05;;;;;;;3.64;56.95;101517.47;5178844;28;20050;-82
2022/03/05 09:03:55;;;;;;;1.25;1.20;;;;;;;3.64;56.95;101512.28;5194535;28;20029;-81
2022/03/05 09:06:25;;;;;;;2.40;1.75;;;;;;;3.63;57.13;101510.53;5180086;28;20045;-82
2022/03/05 09:08:57;;;;;;;2.13;2.00;;;;;;;3.75;57.24;101510.72;5192909;28;20038;-80
2022/03/05 09:11:27;;;;;;;2.42;2.22;;;;;;;3.84;56.10;101504.75;5198742;28;20029;-81
2022/03/05 09:13:58;;;;;;;1.33;1.33;;;;;;;3.86;56.33;101502.16;5180945;28;20053;-81
2022/03/05 09:16:29;;;;;;;2.88;1.90;;;;;;;3.88;56.13;101500.47;5180065;28;20037;-81
2022/03/05 09:18:59;;;;;;;0.63;0.63;;;;;;;3.85;56.87;101509.09;5206409;28;20318;-80
2022/03/05 09:21:31;;;;;;;8.05;2.38;;;;;;;3.86;56.87;101510.84;5181167;28;20029;-83
2022/03/05 09:24:03;;;;;;;1.80;1.70;;;;;;;3.90;56.59;101510.03;5176320;28;20033;-79
2022/03/05 09:26:37;;;;;;;2.05;1.92;;;;;;;4.03;56.29;101507.59;5195056;28;20033;-81
2022/03/05 09:29:07;;;;;;;2.70;2.38;;;;;;;4.02;56.65;101514.50;5198008;28;20057;-81
2022/03/05 09:31:39;;;;;;;1.52;1.50;;;;;;;4.08;57.13;101509.41;5178828;28;20076;-79
2022/03/05 09:34:09;;;;;;;2.63;1.65;;;;;;;4.20;56.45;101518.19;5189110;28;20086;-82
2022/03/05 09:36:40;;;;;;;2.05;1.95;;;;;;;4.13;57.20;101514.66;5195690;28;20038;-79
2022/03/05 09:39:11;;;;;;;3.80;3.45;;;;;;;4.18;56.58;101517.28;5178450;28;20037;-80
2022/03/05 09:41:41;;;;;;;1.58;1.48;;;;;;;4.23;56.22;101520.81;5195429;28;20040;-82
2022/03/05 09:44:12;;;;;;;2.42;2.33;;;;;;;4.17;56.50;101513.84;5164916;28;20046;-81
2022/03/05 09:46:43;;;;;;;2.33;2.10;;;;;;;4.30;56.30;101512.25;5160376;28;20034;-80
2022/03/05 09:49:17;;;;;;;3.25;3.00;;;;;;;4.37;56.21;101515.81;5181030;28;20030;-80
2022/03/05 09:51:47;;;;;;;1.27;1.27;;;;;;;4.46;56.09;101515.00;5198935;28;20030;-81
2022/03/05 09:54:24;;;;;;;1.25;1.25;;;;;;;4.50;56.69;101511.63;5178167;28;20394;-80
2022/03/05 09:56:55;;;;;;;1.15;1.15;;;;;;;4.55;55.85;101526.38;5180819;28;20025;-81
2022/03/05 09:59:25;;;;;;;4.35;3.20;;;;;;;4.63;55.26;101521.28;5171828;28;20091;-83
2022/03/05 10:01:56;;;;;;;2.60;2.40;;;;;;;4.64;56.10;101520.41;5193319;28;20131;-81
2022/03/05 10:04:26;;;;;;;4.70;2.15;;;;;;;4.60;57.06;101522.97;5191479;28;20075;-81
2022/03/05 10:07:09;;;;;;;1.52;1.42;;;;;;;4.61;56.65;101515.19;5191353;28;20036;-79
2022/03/05 10:09:42;;;;;;;1.17;1.17;;;;;;;4.67;55.84;101523.03;5191131;28;20077;-86
2022/03/05 10:12:30;;;;;;;1.77;1.67;;;;;;;4.78;56.39;101522.28;5191616;28;20072;-81
2022/03/05 10:15:17;;;;;;;1.08;1.08;;;;;;;4.79;57.40;101521.41;5190472;28;20034;-80
2022/03/05 10:17:59;;;;;;;1.75;1.65;;;;;;;4.87;56.34;101520.66;5181152;28;20116;-81
2022/03/05 10:20:32;;;;;;;2.78;2.58;;;;;;;4.88;57.44;101524.13;5163354;28;20133;-87
2022/03/05 10:23:08;;;;;;;4.07;3.28;;;;;;;4.95;56.39;101520.72;5192850;28;20457;-83
2022/03/05 10:25:48;;;;;;;1.88;1.77;;;;;;;4.93;56.23;101509.41;5187193;28;20041;-81
2022/03/05 10:28:22;;;;;;;5.70;1.77;;;;;;;4.99;56.29;101512.09;5193330;28;20548;-80
2022/03/05 10:30:58;;;;;;;1.42;1.38;;;;;;;5.08;56.25;101511.28;5173504;28;20465;-82
2022/03/05 10:33:56;;;;;;;2.10;1.67;;;;;;;5.15;55.47;101512.22;5196513;28;20489;-86
2022/03/05 10:36:27;;;;;;;2.28;1.95;;;;;;;5.26;56.41;101507.09;5159081;28;20432;-85
2022/03/05 10:39:00;;;;;;;4.40;2.72;;;;;;;5.25;56.22;101500.13;5183255;28;20041;-82
2022/03/05 10:41:34;;;;;;;1.73;1.63;;;;;;;5.35;55.82;101507.16;5195238;28;20049;-81
2022/03/05 10:44:18;;;;;;;1.50;1.40;;;;;;;5.25;56.54;101498.41;5194741;28;20042;-81
2022/03/05 10:46:59;;;;;;;2.03;1.92;;;;;;;5.35;56.59;101495.00;5191723;28;20065;-86
2022/03/05 10:49:35;;;;;;;1.77;1.67;;;;;;;5.51;56.39;101490.78;5192747;28;20044;-84
2022/03/05 10:52:08;;;;;;;2.63;2.42;;;;;;;5.54;55.88;101499.50;5178836;28;20065;-81
2022/03/05 10:54:40;;;;;;;2.92;2.72;;;;;;;5.55;55.33;101496.00;5169097;28;20102;-80
2022/03/05 10:57:18;;;;;;;2.08;1.90;;;;;;;5.64;55.77;101493.44;5179527;28;20401;-82
2022/03/05 10:59:55;;;;;;;4.45;4.00;;;;;;;5.72;54.91;101499.56;5181598;28;20045;-81
2022/03/05 11:02:25;;;;;;;2.92;2.15;;;;;;;5.80;54.64;101489.22;5197727;28;20417;-84
2022/03/05 11:04:57;;;;;;;5.10;3.05;;;;;;;5.91;55.20;101482.28;5180662;28;20140;-83
2022/03/05 11:07:28;;;;;;;2.20;1.95;;;;;;;5.87;55.12;101485.75;5198812;28;20083;-84
2022/03/05 11:10:01;;;;;;;3.83;3.33;;;;;;;5.92;55.24;101486.66;5192291;28;20041;-81
2022/03/05 11:12:32;;;;;;;1.60;1.50;;;;;;;5.97;55.00;101487.56;5195960;28;20041;-80
2022/03/05 11:15:07;;;;;;;1.60;1.55;;;;;;;6.14;54.67;101482.44;5209228;28;20113;-82
2022/03/05 11:17:40;;;;;;;1.25;1.23;;;;;;;6.15;53.89;101478.09;5178302;28;20033;-83
2022/03/05 11:20:12;;;;;;;1.98;1.88;;;;;;;6.20;54.24;101476.38;5163122;28;20034;-87
2022/03/05 11:22:49;;;;;;;3.55;2.45;;;;;;;6.28;54.84;101479.88;5183585;28;20109;-81
2022/03/05 11:25:24;;;;;;;1.75;1.65;;;;;;;6.35;54.01;101482.50;5168619;28;20048;-84
2022/03/05 11:28:05;;;;;;;4.47;3.03;;;;;;;6.40;53.97;101472.97;5202794;28;20029;-84
2022/03/05 11:30:43;;;;;;;1.65;1.45;;;;;;;6.47;53.41;101479.94;5178707;28;20673;-84
2022/03/05 11:33:34;;;;;;;5.45;2.42;;;;;;;6.50;53.24;101479.91;5197171;28;20033;-81
2022/03/05 11:36:07;;;;;;;2.65;2.03;;;;;;;6.63;53.66;101474.75;5194736;28;20040;-83
2022/03/05 11:38:38;;;;;;;2.13;2.00;;;;;;;6.79;52.76;101476.50;5181517;28;20016;-85
2022/03/05 11:41:25;;;;;;;0.60;0.60;;;;;;;6.82;52.36;101473.88;5174949;28;20121;-85
2022/03/05 11:44:11;;;;;;;1.35;1.25;;;;;;;6.91;51.69;101473.03;5203343;28;20040;-85
2022/03/05 11:46:42;;;;;;;0.95;0.95;;;;;;;6.92;51.85;101473.00;5197015;28;20044;-81
2022/03/05 11:49:15;;;;;;;2.05;1.95;;;;;;;6.89;49.99;101475.63;5183313;28;20038;-82
2022/03/05 11:51:59;;;;;;;1.67;1.58;;;;;;;7.05;51.47;101459.97;5168577;28;20029;-85
2022/03/05 11:54:29;;;;;;;2.58;2.38;;;;;;;7.17;50.86;101459.94;5211177;28;20045;-83
2022/03/05 11:57:14;;;;;;;0.75;0.75;;;;;;;7.43;50.90;101459.03;5185392;28;20045;-80